Terminal Aerodrome Forecast
Issued by NWS

Home | Current Version | Previous Version | Graphics & Text | Print | Product List | Glossary On
Versions: 1 2 3 4 5 6 7 8 9 10 11 12 13 14 15 16 17 18 19 20 21 22 23
000
FTUS42 KMHX 181700
TAFOAJ
TAF
KOAJ 181727Z 1818/1918 02010KT P6SM SCT020 OVC040
     FM182100 05010KT P6SM VCSH BKN025
     FM190300 05012KT 4SM RA BR OVC010
     FM190600 04012KT 4SM RA OVC007
      AMD LTD TO CLD VIS AND WIND=

USA.gov is the U.S. government's official web portal to all federal, state and local government web resources and services.